Air Navigation Services of Czech Republic
Airport: LKLN Updated:  10.08.2020 23:56:24  UTC
 METAR LKLN 11.08. 00:00 ...
METAR LKLN 110000Z AUTO VRB01KT 9999 FEW090 18/16 Q1019=